PAMD METAR and TAF weather

Enter ICAO airport designator
Station Type Date Time Source
PAMD METAR 2018/12/12 06:51 UTC NOAA

PAMD 120651Z AUTO 25026G40KT 10SM SCT028 OVC036 01/M03 A2893 RMK AO2 PK WND 25040/0646 SLP786 T00111033 FZRANO


Station Type Date Time Source
PAMD Decoded METAR 2018/12/12 06:51 UTC NOAA

Middleton Island, Middleton Island Airport, AK, United States (PAMD) 59-26N 146-18W 14M
Dec 12, 2018 - 01:51 AM EST / 2018.12.12 0651 UTC
Wind: from the WSW (250 degrees) at 30 MPH (26 KT) gusting to 46 MPH (40 KT):0
Visibility: 10 mile(s):0
Sky conditions: overcast
Temperature: 34.0 F (1.1 C)
Windchill: 21 F (-6 C):1
Dew Point: 26.1 F (-3.3 C)
Relative Humidity: 72%
Pressure (altimeter): 28.93 in. Hg (979 hPa)
ob: PAMD 120651Z AUTO 25026G40KT 10SM SCT028 OVC036 01/M03 A2893 RMK AO2 PK WND 25040/0646 SLP786 T00111033 FZRANO
cycle: 7

Station Type Date Time Source
PAMD TAF UTC NOAA

Error!


Example: see airport list